Welcome to your KRiS 5

When a pilot does not flare on landing, use beta and minimal braking; a Caravan Tire's longevity is reduced by what percent?
What is the ignition switch used for on the Cessna Caravan? Select all that apply.
A medical ship with 8 lbs of dry ice does not have to be written up on the Notice of Pilot-In-Command (NOPC) form and/or called into Dispatch.
How close do you have to be along side of an ILS to receive identification?
In the following METAR: METAR KJFK 100651Z 34010KT 10SM CLR 22/13 A2982
RMK AO2 SLP097 T02170128 --
what is T02170128?
If during start, the starter accelerates the gas generator rapidly above 20% Ng, the pilot should
After an aborted start for whatever reason, it is essential before the next start attempt to
Martinaire uses the basic tabular method for determining weight and balance, however, Cessna addresses weight and balance as a percentage of the Mean Aerodynamic Chord (MAC). What is MAC?
On engine shutdown, the pilot turns the battery off but fails to turn off the standby-power switch. Several annunciators remain lit. Why?
An APU is recommended during winter operations when temperatures are below 0 F (-18 C). Why? Select all that apply.